createdAt,value
2022-12-25T00:02:02.106Z,87.84
2022-12-25T00:04:28.492Z,88.08
2022-12-25T00:06:54.836Z,88.20
2022-12-25T00:09:21.403Z,87.59
2022-12-25T00:11:47.781Z,87.61
2022-12-25T00:14:14.152Z,87.44
2022-12-25T00:16:41.914Z,89.17
2022-12-25T00:19:08.331Z,88.57
2022-12-25T00:21:34.688Z,88.35
2022-12-25T00:24:01.136Z,88.28
2022-12-25T00:26:27.868Z,89.05
2022-12-25T00:28:56.067Z,87.24
2022-12-25T00:31:23.739Z,89.04
2022-12-25T00:33:52.294Z,88.32
2022-12-25T00:36:20.790Z,88.15
2022-12-25T00:38:47.687Z,89.21
2022-12-25T00:41:16.371Z,88.12
2022-12-25T00:43:43.360Z,87.64
2022-12-25T00:46:11.895Z,87.93
2022-12-25T00:48:38.720Z,88.71
2022-12-25T00:51:08.516Z,90.35
2022-12-25T00:53:34.907Z,89.24
2022-12-25T00:56:03.294Z,91.25
2022-12-25T00:58:31.931Z,90.47
2022-12-25T01:00:58.520Z,89.88
2022-12-25T01:03:25.612Z,88.64
2022-12-25T01:05:57.919Z,87.84
2022-12-25T01:08:26.153Z,88.17
2022-12-25T01:10:56.579Z,88.27
2022-12-25T01:13:23.179Z,88.28
2022-12-25T01:15:49.956Z,87.70
2022-12-25T01:18:16.306Z,87.40
2022-12-25T01:20:42.704Z,88.66
2022-12-25T01:23:09.144Z,89.51
2022-12-25T01:25:36.839Z,89.87
2022-12-25T01:28:03.418Z,90.52
2022-12-25T01:30:29.815Z,90.29
2022-12-25T01:32:56.173Z,91.45
2022-12-25T01:35:22.630Z,90.48
2022-12-25T01:37:50.353Z,90.44
2022-12-25T01:40:16.842Z,91.24
2022-12-25T01:42:44.856Z,90.70
2022-12-25T01:45:31.848Z,88.68
2022-12-25T01:47:58.829Z,88.81
2022-12-25T01:50:25.443Z,89.27
2022-12-25T01:52:52.708Z,89.09
2022-12-25T01:55:19.584Z,89.33
2022-12-25T01:57:47.329Z,88.72
2022-12-25T02:00:14.459Z,88.53
2022-12-25T02:02:41.850Z,88.72
2022-12-25T02:05:14.155Z,89.75
2022-12-25T02:07:42.054Z,89.29
2022-12-25T02:10:10.154Z,91.13
2022-12-25T02:12:37.450Z,89.51
2022-12-25T02:15:08.692Z,90.71
2022-12-25T02:17:41.221Z,90.07
2022-12-25T02:20:40.464Z,90.00
2022-12-25T02:23:36.655Z,90.39
2022-12-25T02:26:16.399Z,88.91
2022-12-25T02:28:50.820Z,89.98
2022-12-25T02:31:20.215Z,90.92
2022-12-25T02:33:58.979Z,89.81
2022-12-25T02:36:32.254Z,89.60
2022-12-25T02:39:02.055Z,89.33
2022-12-25T02:41:33.224Z,90.05
2022-12-25T02:44:04.099Z,88.57
2022-12-25T02:46:32.443Z,90.19
2022-12-25T02:49:03.633Z,90.81
2022-12-25T02:51:34.503Z,91.16
2022-12-25T02:54:06.031Z,90.67
2022-12-25T02:56:34.974Z,89.55
2022-12-25T02:59:04.126Z,92.11
2022-12-25T03:01:32.849Z,91.25
2022-12-25T03:04:04.581Z,91.76
2022-12-25T03:06:32.782Z,92.38
2022-12-25T03:09:01.061Z,90.36
2022-12-25T03:11:28.163Z,90.22
2022-12-25T03:13:57.752Z,90.90
2022-12-25T03:16:25.513Z,90.89
2022-12-25T03:18:53.989Z,92.36
2022-12-25T03:21:20.460Z,91.63
2022-12-25T03:23:50.827Z,91.23
2022-12-25T03:26:17.862Z,93.41
2022-12-25T03:28:44.267Z,91.22
2022-12-25T03:31:16.823Z,92.79
2022-12-25T03:34:09.373Z,92.55
2022-12-25T03:36:47.704Z,92.04
2022-12-25T03:39:22.054Z,91.43
2022-12-25T03:41:52.797Z,92.18
2022-12-25T03:44:26.510Z,92.00
2022-12-25T03:46:59.244Z,94.70
2022-12-25T03:49:32.333Z,95.97
2022-12-25T03:52:01.861Z,96.59
2022-12-25T03:54:32.806Z,96.06
2022-12-25T03:56:59.830Z,95.51
2022-12-25T03:59:26.205Z,97.67
2022-12-25T04:01:52.761Z,98.38
2022-12-25T04:04:19.302Z,97.83
2022-12-25T04:06:47.118Z,97.07
2022-12-25T04:09:13.513Z,97.39
2022-12-25T04:11:39.881Z,95.74
2022-12-25T04:14:06.217Z,95.97
2022-12-25T04:16:32.634Z,96.07
2022-12-25T04:18:59.045Z,96.94
2022-12-25T04:21:25.704Z,97.18
2022-12-25T04:23:53.425Z,97.54
2022-12-25T04:26:19.836Z,98.05
2022-12-25T04:28:46.197Z,98.74
2022-12-25T04:31:12.637Z,97.50
2022-12-25T04:33:39.003Z,97.70
2022-12-25T04:36:06.717Z,97.83
2022-12-25T04:38:33.408Z,98.54
2022-12-25T04:41:02.353Z,97.46
2022-12-25T04:43:29.233Z,98.36
2022-12-25T04:45:57.242Z,97.45
2022-12-25T04:48:24.061Z,99.44
2022-12-25T04:50:50.884Z,97.93
2022-12-25T04:53:18.697Z,98.03
2022-12-25T04:55:45.206Z,98.71
2022-12-25T04:58:12.973Z,98.54
2022-12-25T05:00:39.432Z,96.40
2022-12-25T05:03:05.972Z,96.06
2022-12-25T05:05:32.380Z,95.20
2022-12-25T05:07:58.806Z,94.53
2022-12-25T05:10:25.173Z,96.22
2022-12-25T05:12:51.552Z,94.83
2022-12-25T05:15:19.762Z,94.23
2022-12-25T05:17:46.142Z,95.00
2022-12-25T05:20:12.620Z,92.50
2022-12-25T05:22:38.992Z,93.70
2022-12-25T05:25:06.212Z,97.34
2022-12-25T05:27:32.708Z,95.05
2022-12-25T05:29:59.097Z,93.18
2022-12-25T05:32:26.770Z,92.87
2022-12-25T05:34:53.100Z,92.05
2022-12-25T05:37:19.463Z,90.75
2022-12-25T05:39:45.825Z,93.40
2022-12-25T05:42:12.164Z,91.37
2022-12-25T05:44:38.551Z,92.25
2022-12-25T05:47:05.137Z,93.07
2022-12-25T05:49:32.828Z,93.90
2022-12-25T05:51:59.254Z,92.30
2022-12-25T05:54:25.637Z,92.08
2022-12-25T05:56:51.996Z,91.11
2022-12-25T05:59:18.519Z,91.42
2022-12-25T06:01:45.370Z,95.11
2022-12-25T06:04:12.972Z,95.49
2022-12-25T06:06:40.989Z,93.04
2022-12-25T06:09:07.341Z,92.86
2022-12-25T06:11:33.747Z,91.70
2022-12-25T06:14:00.165Z,93.13
2022-12-25T06:16:26.583Z,92.49
2022-12-25T06:18:52.973Z,91.96
2022-12-25T06:21:19.751Z,92.67
2022-12-25T06:23:47.768Z,93.25
2022-12-25T06:26:16.049Z,92.55
2022-12-25T06:28:42.495Z,93.70
2022-12-25T06:31:11.012Z,93.09
2022-12-25T06:33:38.246Z,95.47
2022-12-25T06:36:06.669Z,93.77
2022-12-25T06:38:33.010Z,92.58
2022-12-25T06:41:04.768Z,94.21
2022-12-25T06:43:34.060Z,91.83
2022-12-25T06:46:02.678Z,93.44
2022-12-25T06:48:29.136Z,95.66
2022-12-25T06:50:55.508Z,92.91
2022-12-25T06:53:21.893Z,92.87
2022-12-25T06:55:48.254Z,94.09
2022-12-25T06:58:16.331Z,94.61
2022-12-25T07:00:42.745Z,92.63
2022-12-25T07:03:09.423Z,93.27
2022-12-25T07:05:36.048Z,92.27
2022-12-25T07:08:02.424Z,94.62
2022-12-25T07:10:28.840Z,94.04
2022-12-25T07:12:55.219Z,93.24
2022-12-25T07:15:23.461Z,93.74
2022-12-25T07:17:49.837Z,95.21
2022-12-25T07:20:16.295Z,94.79
2022-12-25T07:22:42.647Z,95.09
2022-12-25T07:25:09.366Z,94.32
2022-12-25T07:27:36.002Z,93.43
2022-12-25T07:30:02.418Z,94.55
2022-12-25T07:32:31.235Z,95.77
2022-12-25T07:34:57.736Z,95.11
2022-12-25T07:37:24.247Z,92.86
2022-12-25T07:39:53.345Z,93.74
2022-12-25T07:42:24.889Z,93.17
2022-12-25T07:44:51.725Z,94.83
2022-12-25T07:47:18.067Z,94.04
2022-12-25T07:49:45.771Z,92.63
2022-12-25T07:52:12.136Z,94.72
2022-12-25T07:54:38.487Z,93.83
2022-12-25T07:57:04.848Z,95.12
2022-12-25T07:59:31.217Z,95.47
2022-12-25T08:01:57.722Z,93.27
2022-12-25T08:04:24.212Z,94.01
2022-12-25T08:06:51.892Z,94.78
2022-12-25T08:09:18.366Z,96.47
2022-12-25T08:11:45.747Z,94.74
2022-12-25T08:14:12.236Z,95.54
2022-12-25T08:16:38.801Z,96.35
2022-12-25T08:19:05.229Z,98.19
2022-12-25T08:21:31.585Z,97.53
2022-12-25T08:23:59.326Z,96.98
2022-12-25T08:26:25.787Z,98.20
2022-12-25T08:28:52.224Z,96.44
2022-12-25T08:31:20.647Z,96.93
2022-12-25T08:33:47.492Z,96.38
2022-12-25T08:36:14.369Z,96.64
2022-12-25T08:38:41.725Z,94.87
2022-12-25T08:41:10.112Z,94.54
2022-12-25T08:43:36.475Z,93.80
2022-12-25T08:46:03.460Z,93.35
2022-12-25T08:48:29.933Z,93.55
2022-12-25T08:50:56.542Z,93.11
2022-12-25T08:53:23.268Z,94.74
2022-12-25T08:55:56.277Z,92.47
2022-12-25T08:58:24.050Z,93.03
2022-12-25T09:00:50.398Z,95.17
2022-12-25T09:03:16.833Z,95.72
2022-12-25T09:05:43.205Z,96.99
2022-12-25T09:08:09.606Z,98.08
2022-12-25T09:10:37.017Z,95.39
2022-12-25T09:13:03.425Z,95.62
2022-12-25T09:15:31.311Z,95.69
2022-12-25T09:17:57.859Z,95.83
2022-12-25T09:20:24.565Z,96.50
2022-12-25T09:22:50.969Z,95.24
2022-12-25T09:25:17.520Z,94.23
2022-12-25T09:27:43.874Z,94.10
2022-12-25T09:30:11.131Z,97.32
2022-12-25T09:32:38.879Z,96.94
2022-12-25T09:35:06.036Z,96.70
2022-12-25T09:37:32.416Z,96.23
2022-12-25T09:39:58.785Z,96.33
2022-12-25T09:42:27.640Z,93.32
2022-12-25T09:44:57.548Z,92.96
2022-12-25T09:47:27.693Z,93.39
2022-12-25T09:50:01.405Z,94.44
2022-12-25T09:52:37.432Z,93.84
2022-12-25T09:55:14.746Z,91.89
2022-12-25T09:57:44.853Z,91.52
2022-12-25T10:00:15.536Z,90.47
2022-12-25T10:03:14.935Z,90.95
2022-12-25T10:05:58.813Z,91.76
2022-12-25T10:08:38.823Z,93.00
2022-12-25T10:11:24.159Z,92.55
2022-12-25T10:14:14.682Z,92.13
2022-12-25T10:16:49.604Z,93.09
2022-12-25T10:19:35.752Z,96.08
2022-12-25T10:22:10.874Z,95.28
2022-12-25T10:24:43.695Z,94.92
2022-12-25T10:27:15.686Z,94.41
2022-12-25T10:29:43.566Z,96.86
2022-12-25T10:32:10.442Z,94.13
2022-12-25T10:34:40.420Z,93.50
2022-12-25T10:37:10.246Z,94.63
2022-12-25T10:39:40.935Z,92.97
2022-12-25T10:42:26.752Z,93.67
2022-12-25T10:45:01.256Z,92.38
2022-12-25T10:47:31.977Z,91.08
2022-12-25T10:49:59.527Z,92.32
2022-12-25T10:52:28.741Z,91.60
2022-12-25T10:54:55.855Z,92.64
2022-12-25T10:57:23.684Z,93.99
2022-12-25T10:59:51.915Z,93.94
2022-12-25T11:02:24.683Z,90.54
2022-12-25T11:04:57.938Z,89.98
2022-12-25T11:07:26.980Z,92.37
2022-12-25T11:09:59.343Z,94.02
2022-12-25T11:12:31.625Z,96.90
2022-12-25T11:15:06.557Z,95.21
2022-12-25T11:17:33.112Z,95.54
2022-12-25T11:20:01.058Z,93.37
2022-12-25T11:22:28.754Z,93.61
2022-12-25T11:24:56.275Z,92.32
2022-12-25T11:27:26.200Z,91.35
2022-12-25T11:29:57.654Z,91.13
2022-12-25T11:32:29.349Z,92.50
2022-12-25T11:34:56.924Z,89.59
2022-12-25T11:37:32.575Z,88.86
2022-12-25T11:40:00.426Z,89.84
2022-12-25T11:42:30.343Z,87.84
2022-12-25T11:45:02.208Z,89.32
2022-12-25T11:47:34.782Z,87.74
2022-12-25T11:50:05.125Z,89.36
2022-12-25T11:52:36.318Z,89.48
2022-12-25T11:55:10.181Z,89.27
2022-12-25T11:57:38.986Z,89.50
2022-12-25T12:00:07.620Z,90.96
2022-12-25T12:02:38.962Z,91.46
2022-12-25T12:05:16.370Z,92.34
2022-12-25T12:07:52.408Z,90.17
2022-12-25T12:10:28.033Z,89.36
2022-12-25T12:13:01.019Z,90.10
2022-12-25T12:15:29.472Z,90.95
2022-12-25T12:18:07.101Z,89.51
2022-12-25T12:20:35.279Z,95.23
2022-12-25T12:23:04.814Z,94.48
2022-12-25T12:25:39.047Z,91.74
2022-12-25T12:28:06.007Z,92.09
2022-12-25T12:30:34.751Z,92.93
2022-12-25T12:33:03.818Z,93.79
2022-12-25T12:35:32.932Z,91.83
2022-12-25T12:38:02.205Z,92.84
2022-12-25T12:40:36.755Z,92.50
2022-12-25T12:43:04.888Z,94.29
2022-12-25T12:45:36.683Z,92.06
2022-12-25T12:48:14.483Z,95.09
2022-12-25T12:50:41.997Z,94.52
2022-12-25T12:53:28.054Z,95.22
2022-12-25T12:55:56.264Z,95.83
2022-12-25T12:58:29.780Z,93.33
2022-12-25T13:01:07.661Z,93.25
2022-12-25T13:03:44.976Z,94.77
2022-12-25T13:06:17.362Z,95.42
2022-12-25T13:09:01.505Z,92.28
2022-12-25T13:11:32.130Z,96.58
2022-12-25T13:14:01.732Z,95.20
2022-12-25T13:16:33.134Z,97.51
2022-12-25T13:19:04.492Z,98.85
2022-12-25T13:21:31.497Z,97.88
2022-12-25T13:23:59.842Z,97.29
2022-12-25T13:26:27.396Z,97.61
2022-12-25T13:28:55.533Z,97.74
2022-12-25T13:31:24.026Z,96.78
2022-12-25T13:33:56.970Z,96.89
2022-12-25T13:36:23.922Z,98.27
2022-12-25T13:38:52.123Z,98.09
2022-12-25T13:41:20.853Z,99.30
2022-12-25T13:43:48.727Z,98.18
2022-12-25T13:46:16.648Z,99.33
2022-12-25T13:48:43.241Z,100.00
2022-12-25T13:51:16.830Z,100.00
2022-12-25T13:53:43.931Z,100.00
2022-12-25T13:56:14.615Z,100.00
2022-12-25T13:58:41.345Z,100.00
2022-12-25T14:01:09.580Z,100.00
2022-12-25T14:03:41.493Z,100.00
2022-12-25T14:06:18.548Z,100.00
2022-12-25T14:08:45.935Z,99.49
2022-12-25T14:11:14.983Z,99.80
2022-12-25T14:13:43.980Z,100.00
2022-12-25T14:16:11.053Z,100.00
2022-12-25T14:18:49.630Z,100.00
2022-12-25T14:21:23.909Z,100.00
2022-12-25T14:23:50.967Z,97.92
2022-12-25T14:26:18.554Z,100.00
2022-12-25T14:28:48.403Z,100.00
2022-12-25T14:31:15.187Z,100.00
2022-12-25T14:33:43.279Z,100.00
2022-12-25T14:36:11.884Z,99.35
2022-12-25T14:38:38.437Z,100.00
2022-12-25T14:41:21.111Z,100.00
2022-12-25T14:43:54.991Z,99.46
2022-12-25T14:46:23.639Z,98.58
2022-12-25T14:49:00.325Z,96.58
2022-12-25T14:51:28.888Z,100.00
2022-12-25T14:53:56.737Z,100.00
2022-12-25T14:56:25.144Z,99.70
2022-12-25T14:58:53.504Z,100.00
2022-12-25T15:01:23.055Z,100.00
2022-12-25T15:03:49.765Z,100.00
2022-12-25T15:06:20.628Z,100.00
2022-12-25T15:08:56.210Z,100.00
2022-12-25T15:11:22.598Z,100.00
2022-12-25T15:13:49.062Z,100.00
2022-12-25T15:16:22.524Z,100.00
2022-12-25T15:18:50.441Z,100.00
2022-12-25T15:21:22.941Z,100.00
2022-12-25T15:23:49.284Z,100.00
2022-12-25T15:26:15.984Z,100.00
2022-12-25T15:28:42.414Z,100.00
2022-12-25T15:31:19.196Z,100.00
2022-12-25T15:33:46.798Z,100.00
2022-12-25T15:36:13.306Z,100.00
2022-12-25T15:38:41.086Z,99.68
2022-12-25T15:41:11.904Z,99.62
2022-12-25T15:43:40.730Z,96.94
2022-12-25T15:46:09.112Z,98.50
2022-12-25T15:48:35.506Z,100.00
2022-12-25T15:51:01.860Z,100.00
2022-12-25T15:53:28.230Z,100.00
2022-12-25T15:55:55.981Z,100.00
2022-12-25T15:58:22.373Z,100.00
2022-12-25T16:00:51.282Z,99.86
2022-12-25T16:03:17.734Z,100.00
2022-12-25T16:05:44.144Z,98.44
2022-12-25T16:08:10.511Z,100.00
2022-12-25T16:10:39.085Z,100.00
2022-12-25T16:13:08.172Z,98.93
2022-12-25T16:15:34.610Z,100.00
2022-12-25T16:18:01.031Z,100.00
2022-12-25T16:20:27.430Z,100.00
2022-12-25T16:22:53.780Z,100.00
2022-12-25T16:25:20.212Z,100.00
2022-12-25T16:27:46.812Z,100.00
2022-12-25T16:30:17.632Z,100.00
2022-12-25T16:32:48.049Z,100.00
2022-12-25T16:35:14.440Z,100.00
2022-12-25T16:37:40.805Z,100.00
2022-12-25T16:40:08.784Z,100.00
2022-12-25T16:42:35.503Z,100.00
2022-12-25T16:45:01.966Z,100.00
2022-12-25T16:47:29.802Z,100.00
2022-12-25T16:49:56.480Z,100.00
2022-12-25T16:52:22.838Z,100.00
2022-12-25T16:54:49.221Z,100.00
2022-12-25T16:57:15.621Z,100.00
2022-12-25T16:59:41.975Z,100.00
2022-12-25T17:02:13.822Z,100.00
2022-12-25T17:04:41.560Z,100.00
2022-12-25T17:07:07.933Z,100.00
2022-12-25T17:09:38.859Z,100.00
2022-12-25T17:12:09.357Z,100.00
2022-12-25T17:14:36.570Z,100.00
2022-12-25T17:17:02.939Z,100.00
2022-12-25T17:19:29.372Z,100.00
2022-12-25T17:21:57.275Z,100.00
2022-12-25T17:24:23.652Z,100.00
2022-12-25T17:26:50.001Z,100.00
2022-12-25T17:29:21.651Z,100.00
2022-12-25T17:31:48.310Z,100.00
2022-12-25T17:34:14.685Z,100.00
2022-12-25T17:36:41.130Z,100.00
2022-12-25T17:39:10.630Z,100.00
2022-12-25T17:41:37.018Z,100.00
2022-12-25T17:44:03.734Z,100.00
2022-12-25T17:46:30.658Z,100.00
2022-12-25T17:48:59.199Z,100.00
2022-12-25T17:51:27.915Z,100.00
2022-12-25T17:53:56.230Z,100.00
2022-12-25T17:56:24.839Z,98.58
2022-12-25T17:58:54.299Z,100.00
2022-12-25T18:01:22.063Z,100.00
2022-12-25T18:03:49.325Z,100.00
2022-12-25T18:06:18.141Z,100.00
2022-12-25T18:08:45.960Z,98.32
2022-12-25T18:11:14.881Z,96.79
2022-12-25T18:13:43.759Z,98.87
2022-12-25T18:16:11.190Z,99.61
2022-12-25T18:18:37.785Z,100.00
2022-12-25T18:21:06.012Z,99.95
2022-12-25T18:23:32.562Z,100.00
2022-12-25T18:26:01.111Z,99.14
2022-12-25T18:28:27.572Z,100.00
2022-12-25T18:30:55.289Z,100.00
2022-12-25T18:33:21.833Z,100.00
2022-12-25T18:35:48.598Z,99.02
2022-12-25T18:38:15.036Z,100.00
2022-12-25T18:40:42.516Z,99.62
2022-12-25T18:43:09.416Z,99.52
2022-12-25T18:45:36.061Z,99.96
2022-12-25T18:48:05.261Z,100.00
2022-12-25T18:50:35.602Z,98.91
2022-12-25T18:53:02.443Z,100.00
2022-12-25T18:55:29.093Z,100.00
2022-12-25T18:57:56.038Z,100.00
2022-12-25T19:00:23.324Z,100.00
2022-12-25T19:02:49.977Z,100.00
2022-12-25T19:05:18.031Z,100.00
2022-12-25T19:07:44.402Z,100.00
2022-12-25T19:10:10.777Z,100.00
2022-12-25T19:12:37.202Z,100.00
2022-12-25T19:15:04.358Z,100.00
2022-12-25T19:17:32.074Z,98.20
2022-12-25T19:19:58.876Z,100.00
2022-12-25T19:22:26.771Z,98.22
2022-12-25T19:24:53.130Z,99.56
2022-12-25T19:27:19.572Z,100.00
2022-12-25T19:29:45.980Z,100.00
2022-12-25T19:32:12.356Z,100.00
2022-12-25T19:34:38.760Z,100.00
2022-12-25T19:37:05.194Z,100.00
2022-12-25T19:39:33.073Z,100.00
2022-12-25T19:41:59.531Z,100.00
2022-12-25T19:44:25.910Z,100.00
2022-12-25T19:46:52.452Z,100.00
2022-12-25T19:49:18.861Z,100.00
2022-12-25T19:51:45.861Z,100.00
2022-12-25T19:54:13.786Z,100.00
2022-12-25T19:56:42.143Z,100.00
2022-12-25T19:59:08.911Z,100.00
2022-12-25T20:01:35.336Z,100.00
2022-12-25T20:04:02.009Z,100.00
2022-12-25T20:06:31.008Z,100.00
2022-12-25T20:09:00.780Z,100.00
2022-12-25T20:11:29.464Z,100.00
2022-12-25T20:13:57.716Z,100.00
2022-12-25T20:16:25.158Z,100.00
2022-12-25T20:18:52.451Z,100.00
2022-12-25T20:21:20.703Z,100.00
2022-12-25T20:23:48.697Z,99.05
2022-12-25T20:26:16.827Z,98.65
2022-12-25T20:28:43.753Z,100.00
2022-12-25T20:31:13.956Z,100.00
2022-12-25T20:33:40.446Z,100.00
2022-12-25T20:36:07.582Z,100.00
2022-12-25T20:38:34.246Z,100.00
2022-12-25T20:41:26.408Z,100.00
2022-12-25T20:43:49.033Z,100.00
2022-12-25T20:46:17.093Z,100.00
2022-12-25T20:48:44.122Z,100.00
2022-12-25T20:51:13.020Z,100.00
2022-12-25T20:53:40.102Z,100.00
2022-12-25T20:56:09.055Z,100.00
2022-12-25T20:58:35.878Z,100.00
2022-12-25T21:01:05.412Z,100.00
2022-12-25T21:03:33.523Z,100.00
2022-12-25T21:06:00.485Z,100.00
2022-12-25T21:08:26.973Z,100.00
2022-12-25T21:10:55.418Z,100.00
2022-12-25T21:13:23.825Z,100.00
2022-12-25T21:15:52.300Z,100.00
2022-12-25T21:18:20.188Z,100.00
2022-12-25T21:20:50.420Z,100.00
2022-12-25T21:23:17.616Z,100.00
2022-12-25T21:25:44.250Z,100.00
2022-12-25T21:28:11.148Z,100.00
2022-12-25T21:30:37.758Z,100.00
2022-12-25T21:33:04.300Z,100.00
2022-12-25T21:35:30.835Z,100.00
2022-12-25T21:37:58.574Z,100.00
2022-12-25T21:40:24.936Z,100.00
2022-12-25T21:42:51.761Z,100.00
2022-12-25T21:45:19.003Z,100.00
2022-12-25T21:48:02.366Z,100.00
2022-12-25T21:50:32.513Z,100.00
2022-12-25T21:53:04.208Z,100.00
2022-12-25T21:55:31.141Z,100.00
2022-12-25T21:57:57.494Z,100.00
2022-12-25T22:00:24.058Z,100.00
2022-12-25T22:02:50.564Z,100.00
2022-12-25T22:05:17.069Z,100.00
2022-12-25T22:07:43.423Z,100.00
2022-12-25T22:10:11.144Z,100.00
2022-12-25T22:12:37.540Z,100.00
2022-12-25T22:15:07.683Z,100.00
2022-12-25T22:17:36.233Z,100.00
2022-12-25T22:20:03.606Z,100.00
2022-12-25T22:22:31.418Z,100.00
2022-12-25T22:25:00.829Z,100.00
2022-12-25T22:27:31.829Z,100.00
2022-12-25T22:29:58.226Z,100.00
2022-12-25T22:32:24.851Z,100.00
2022-12-25T22:34:51.293Z,100.00
2022-12-25T22:37:18.762Z,100.00
2022-12-25T22:39:45.791Z,100.00
2022-12-25T22:42:12.962Z,100.00
2022-12-25T22:44:40.689Z,100.00
2022-12-25T22:47:07.166Z,100.00
2022-12-25T22:49:33.593Z,100.00
2022-12-25T22:52:00.002Z,100.00
2022-12-25T22:54:29.852Z,100.00
2022-12-25T22:56:57.120Z,100.00
2022-12-25T22:59:23.688Z,100.00
2022-12-25T23:01:51.559Z,100.00
2022-12-25T23:04:18.283Z,100.00
2022-12-25T23:06:45.403Z,100.00
2022-12-25T23:09:18.883Z,100.00
2022-12-25T23:11:48.754Z,100.00
2022-12-25T23:14:15.455Z,100.00
2022-12-25T23:16:41.862Z,100.00
2022-12-25T23:19:12.205Z,100.00
2022-12-25T23:21:39.584Z,100.00
2022-12-25T23:24:09.016Z,100.00
2022-12-25T23:26:35.370Z,100.00
2022-12-25T23:29:01.918Z,100.00
2022-12-25T23:31:30.648Z,100.00
2022-12-25T23:33:58.024Z,100.00
2022-12-25T23:36:25.846Z,100.00
2022-12-25T23:38:52.299Z,100.00
2022-12-25T23:41:18.750Z,100.00
2022-12-25T23:43:45.119Z,100.00
2022-12-25T23:46:11.551Z,100.00
2022-12-25T23:48:38.009Z,100.00
2022-12-25T23:51:05.660Z,100.00
2022-12-25T23:53:33.797Z,100.00
2022-12-25T23:56:00.526Z,100.00
2022-12-25T23:58:28.669Z,100.00
